createdAt,value
2017-01-26T00:00:26.794Z,0
2017-01-26T00:01:35.740Z,0
2017-01-26T00:02:44.778Z,0
2017-01-26T00:03:53.737Z,0
2017-01-26T00:05:02.786Z,0
2017-01-26T00:06:11.743Z,0
2017-01-26T00:07:20.691Z,0
2017-01-26T00:08:29.646Z,0
2017-01-26T00:09:38.598Z,0
2017-01-26T00:10:47.639Z,0
2017-01-26T00:11:56.600Z,0
2017-01-26T00:13:05.550Z,0
2017-01-26T00:14:14.513Z,0
2017-01-26T00:15:23.468Z,0
2017-01-26T00:16:32.421Z,0
2017-01-26T00:17:41.373Z,0
2017-01-26T00:18:50.325Z,0
2017-01-26T00:19:59.281Z,0
2017-01-26T00:21:08.244Z,0
2017-01-26T00:22:17.293Z,0
2017-01-26T00:23:26.280Z,0
2017-01-26T00:24:35.244Z,0
2017-01-26T00:25:44.198Z,0
2017-01-26T00:26:53.240Z,0
2017-01-26T00:28:02.200Z,0
2017-01-26T00:29:11.195Z,0
2017-01-26T00:30:20.149Z,0
2017-01-26T00:31:29.140Z,0
2017-01-26T00:32:38.092Z,0
2017-01-26T00:33:47.221Z,0
2017-01-26T00:34:56.175Z,0
2017-01-26T00:36:05.135Z,0
2017-01-26T00:37:14.088Z,0
2017-01-26T00:38:23.064Z,0
2017-01-26T00:39:32.018Z,0
2017-01-26T00:40:40.979Z,0
2017-01-26T00:41:49.932Z,0
2017-01-26T00:42:58.904Z,0
2017-01-26T00:44:07.855Z,0
2017-01-26T00:45:16.812Z,0
2017-01-26T00:46:25.768Z,0
2017-01-26T00:47:34.811Z,0
2017-01-26T00:48:43.768Z,0
2017-01-26T00:49:52.724Z,0
2017-01-26T00:51:01.678Z,0
2017-01-26T00:52:10.633Z,0
2017-01-26T00:53:19.594Z,0
2017-01-26T00:54:28.578Z,0
2017-01-26T00:55:37.537Z,0
2017-01-26T00:56:46.492Z,0
2017-01-26T00:57:55.446Z,0
2017-01-26T00:59:04.498Z,0
2017-01-26T01:00:13.480Z,0
2017-01-26T01:01:22.462Z,0
2017-01-26T01:02:31.420Z,0
2017-01-26T01:03:40.374Z,0
2017-01-26T01:04:49.327Z,0
2017-01-26T01:05:58.282Z,0
2017-01-26T01:07:07.238Z,0
2017-01-26T01:08:16.196Z,0
2017-01-26T01:09:25.176Z,0
2017-01-26T01:10:34.133Z,0
2017-01-26T01:11:43.090Z,0
2017-01-26T01:12:52.049Z,0
2017-01-26T01:14:01.005Z,0
2017-01-26T01:15:09.961Z,0
2017-01-26T01:16:18.914Z,0
2017-01-26T01:17:27.864Z,0
2017-01-26T01:18:36.819Z,0
2017-01-26T01:19:45.773Z,0
2017-01-26T01:20:54.726Z,0
2017-01-26T01:22:03.682Z,0
2017-01-26T01:23:12.642Z,0
2017-01-26T01:24:21.595Z,0
2017-01-26T01:25:30.547Z,0
2017-01-26T01:26:39.502Z,0
2017-01-26T01:27:48.457Z,0
2017-01-26T01:28:57.508Z,0
2017-01-26T01:30:06.461Z,0
2017-01-26T01:31:15.444Z,0
2017-01-26T01:32:24.396Z,0
2017-01-26T01:33:33.353Z,0
2017-01-26T01:34:42.310Z,0
2017-01-26T01:35:51.291Z,0
2017-01-26T01:37:00.241Z,0
2017-01-26T01:38:09.200Z,0
2017-01-26T01:39:18.275Z,0
2017-01-26T01:40:27.238Z,0
2017-01-26T01:41:36.193Z,0
2017-01-26T01:42:45.150Z,0
2017-01-26T01:43:54.108Z,0
2017-01-26T01:45:03.061Z,0
2017-01-26T01:46:12.070Z,0
2017-01-26T01:47:21.029Z,0
2017-01-26T01:48:30.623Z,0
2017-01-26T01:49:39.579Z,0
2017-01-26T01:50:48.573Z,0
2017-01-26T01:51:58.745Z,0
2017-01-26T01:53:08.359Z,0
2017-01-26T01:54:17.983Z,0
2017-01-26T01:55:27.781Z,0
2017-01-26T01:56:37.503Z,0
2017-01-26T01:57:46.469Z,0
2017-01-26T01:58:57.922Z,0
2017-01-26T02:00:09.098Z,0
2017-01-26T02:01:18.815Z,0
2017-01-26T02:02:30.261Z,0
2017-01-26T02:03:39.800Z,0
2017-01-26T02:04:50.735Z,0
2017-01-26T02:06:04.786Z,0
2017-01-26T02:07:15.425Z,0
2017-01-26T02:08:26.217Z,0
2017-01-26T02:09:37.116Z,0
2017-01-26T02:10:54.194Z,0
2017-01-26T02:12:04.619Z,0
2017-01-26T02:13:14.996Z,0
2017-01-26T02:14:25.853Z,0
2017-01-26T02:15:35.860Z,0
2017-01-26T02:16:45.684Z,0
2017-01-26T02:17:54.782Z,0
2017-01-26T02:19:03.736Z,0
2017-01-26T02:20:13.098Z,0
2017-01-26T02:21:22.053Z,0
2017-01-26T02:22:31.008Z,0
2017-01-26T02:23:39.962Z,0
2017-01-26T02:24:48.914Z,0
2017-01-26T02:25:57.868Z,0
2017-01-26T02:27:06.829Z,0
2017-01-26T02:28:15.790Z,0
2017-01-26T02:29:24.746Z,0
2017-01-26T02:30:33.701Z,0
2017-01-26T02:31:42.666Z,0
2017-01-26T02:32:51.657Z,0
2017-01-26T02:34:00.608Z,0
2017-01-26T02:35:09.562Z,0
2017-01-26T02:36:18.604Z,0
2017-01-26T02:37:27.562Z,0
2017-01-26T02:38:36.513Z,0
2017-01-26T02:39:45.472Z,0
2017-01-26T02:40:54.425Z,0
2017-01-26T02:42:03.384Z,0
2017-01-26T02:43:12.336Z,0
2017-01-26T02:44:21.342Z,0
2017-01-26T02:45:30.318Z,0
2017-01-26T02:46:39.278Z,0
2017-01-26T02:47:48.266Z,0
2017-01-26T02:48:57.223Z,0
2017-01-26T02:50:06.266Z,0
2017-01-26T02:51:15.220Z,0
2017-01-26T02:52:24.185Z,0
2017-01-26T02:53:33.142Z,0
2017-01-26T02:54:42.097Z,0
2017-01-26T02:55:51.047Z,0
2017-01-26T02:56:59.996Z,0
2017-01-26T02:58:08.949Z,0
2017-01-26T02:59:17.904Z,0
2017-01-26T03:00:26.858Z,0
2017-01-26T03:01:35.818Z,0
2017-01-26T03:02:44.771Z,0
2017-01-26T03:03:53.745Z,0
2017-01-26T03:05:02.701Z,0
2017-01-26T03:06:12.061Z,0
2017-01-26T03:07:21.016Z,0
2017-01-26T03:08:29.970Z,0
2017-01-26T03:09:38.920Z,0
2017-01-26T03:10:47.881Z,0
2017-01-26T03:11:56.835Z,0
2017-01-26T03:13:05.792Z,0
2017-01-26T03:14:14.754Z,0
2017-01-26T03:15:23.707Z,0
2017-01-26T03:16:32.660Z,0
2017-01-26T03:17:41.617Z,0
2017-01-26T03:18:50.576Z,0
2017-01-26T03:19:59.533Z,0
2017-01-26T03:21:08.488Z,0
2017-01-26T03:22:17.443Z,0
2017-01-26T03:23:26.400Z,0
2017-01-26T03:24:35.357Z,0
2017-01-26T03:25:44.310Z,0
2017-01-26T03:26:53.267Z,0
2017-01-26T03:28:02.218Z,0
2017-01-26T03:29:11.169Z,0
2017-01-26T03:30:20.126Z,0
2017-01-26T03:31:29.110Z,0
2017-01-26T03:32:38.060Z,0
2017-01-26T03:33:47.017Z,0
2017-01-26T03:34:55.971Z,0
2017-01-26T03:36:04.934Z,0
2017-01-26T03:37:13.897Z,0
2017-01-26T03:38:22.855Z,0
2017-01-26T03:39:31.838Z,0
2017-01-26T03:40:40.788Z,0
2017-01-26T03:41:49.740Z,0
2017-01-26T03:42:58.693Z,0
2017-01-26T03:44:07.648Z,0
2017-01-26T03:45:16.602Z,0
2017-01-26T03:46:25.557Z,0
2017-01-26T03:47:34.508Z,0
2017-01-26T03:48:43.487Z,0
2017-01-26T03:49:52.438Z,0
2017-01-26T03:51:01.391Z,0
2017-01-26T03:52:10.345Z,0
2017-01-26T03:53:19.298Z,0
2017-01-26T03:54:28.252Z,0
2017-01-26T03:55:37.206Z,0
2017-01-26T03:56:46.159Z,0
2017-01-26T03:57:55.114Z,0
2017-01-26T03:59:04.072Z,0
2017-01-26T04:00:13.025Z,0
2017-01-26T04:01:21.983Z,0
2017-01-26T04:02:30.937Z,0
2017-01-26T04:03:39.889Z,0
2017-01-26T04:04:48.843Z,0
2017-01-26T04:05:57.795Z,0
2017-01-26T04:07:06.746Z,0
2017-01-26T04:08:15.703Z,0
2017-01-26T04:09:24.657Z,0
2017-01-26T04:10:33.619Z,0
2017-01-26T04:11:42.577Z,0
2017-01-26T04:12:51.529Z,0
2017-01-26T04:14:00.503Z,0
2017-01-26T04:15:09.455Z,0
2017-01-26T04:16:18.406Z,0
2017-01-26T04:17:27.361Z,0
2017-01-26T04:18:36.313Z,0
2017-01-26T04:19:45.275Z,0
2017-01-26T04:20:54.224Z,0
2017-01-26T04:22:03.178Z,0
2017-01-26T04:23:12.189Z,0
2017-01-26T04:24:21.136Z,0
2017-01-26T04:25:30.090Z,0
2017-01-26T04:26:39.052Z,0
2017-01-26T04:27:48.004Z,0
2017-01-26T04:28:56.954Z,0
2017-01-26T04:30:05.909Z,0
2017-01-26T04:31:14.859Z,0
2017-01-26T04:32:23.843Z,0
2017-01-26T04:33:32.806Z,0
2017-01-26T04:34:41.760Z,0
2017-01-26T04:35:50.714Z,0
2017-01-26T04:36:59.670Z,0
2017-01-26T04:38:08.627Z,0
2017-01-26T04:39:17.584Z,0
2017-01-26T04:40:26.541Z,0
2017-01-26T04:41:35.496Z,0
2017-01-26T04:42:44.444Z,0
2017-01-26T04:43:53.395Z,0
2017-01-26T04:45:02.439Z,0
2017-01-26T04:46:11.394Z,0
2017-01-26T04:47:20.344Z,0
2017-01-26T04:48:29.295Z,0
2017-01-26T04:49:38.246Z,0
2017-01-26T04:50:47.223Z,0
2017-01-26T04:51:56.181Z,0
2017-01-26T04:53:05.140Z,0
2017-01-26T04:54:14.090Z,0
2017-01-26T04:55:23.051Z,0
2017-01-26T04:56:31.996Z,0
2017-01-26T04:57:40.950Z,0
2017-01-26T04:58:49.900Z,0
2017-01-26T04:59:58.853Z,0
2017-01-26T05:01:07.811Z,0
2017-01-26T05:02:16.768Z,0
2017-01-26T05:03:25.726Z,0
2017-01-26T05:04:34.679Z,0
2017-01-26T05:05:43.627Z,0
2017-01-26T05:06:52.583Z,0
2017-01-26T05:08:01.542Z,0
2017-01-26T05:09:10.496Z,0
2017-01-26T05:10:19.446Z,0
2017-01-26T05:11:28.396Z,0
2017-01-26T05:12:37.344Z,0
2017-01-26T05:13:46.312Z,0
2017-01-26T05:14:55.297Z,0
2017-01-26T05:16:04.251Z,0
2017-01-26T05:17:13.205Z,0
2017-01-26T05:18:22.156Z,0
2017-01-26T05:19:31.111Z,0
2017-01-26T05:20:40.066Z,0
2017-01-26T05:21:49.013Z,0
2017-01-26T05:22:57.966Z,0
2017-01-26T05:24:06.918Z,0
2017-01-26T05:25:15.865Z,0
2017-01-26T05:26:24.831Z,0
2017-01-26T05:27:33.784Z,0
2017-01-26T05:28:42.768Z,0
2017-01-26T05:29:51.715Z,0
2017-01-26T05:31:00.672Z,0
2017-01-26T05:32:09.626Z,0
2017-01-26T05:33:18.580Z,0
2017-01-26T05:34:27.535Z,0
2017-01-26T05:35:36.488Z,0
2017-01-26T05:36:45.439Z,0
2017-01-26T05:37:54.395Z,0
2017-01-26T05:39:03.350Z,0
2017-01-26T05:40:12.306Z,0
2017-01-26T05:41:21.255Z,0
2017-01-26T05:42:30.228Z,0
2017-01-26T05:43:39.187Z,0
2017-01-26T05:44:48.143Z,0
2017-01-26T05:45:57.102Z,0
2017-01-26T05:47:06.142Z,0
2017-01-26T05:48:15.097Z,0
2017-01-26T05:49:24.079Z,0
2017-01-26T05:50:33.033Z,0
2017-01-26T05:51:41.988Z,0
2017-01-26T05:52:50.947Z,0
2017-01-26T05:53:59.894Z,0
2017-01-26T05:55:08.846Z,0
2017-01-26T05:56:17.804Z,0
2017-01-26T05:57:26.753Z,0
2017-01-26T05:58:35.707Z,0
2017-01-26T05:59:44.667Z,0
2017-01-26T06:00:53.705Z,0
2017-01-26T06:02:02.656Z,0
2017-01-26T06:03:11.608Z,0
2017-01-26T06:04:20.559Z,0
2017-01-26T06:05:29.514Z,0
2017-01-26T06:06:38.463Z,0
2017-01-26T06:07:47.422Z,0
2017-01-26T06:08:56.404Z,0
2017-01-26T06:10:05.353Z,0
2017-01-26T06:11:14.307Z,0
2017-01-26T06:12:23.257Z,0
2017-01-26T06:13:32.211Z,0
2017-01-26T06:14:41.166Z,0
2017-01-26T06:15:50.112Z,0
2017-01-26T06:16:59.073Z,0
2017-01-26T06:18:08.024Z,0
2017-01-26T06:19:16.976Z,0
2017-01-26T06:20:25.933Z,0
2017-01-26T06:21:34.886Z,0
2017-01-26T06:22:43.865Z,0
2017-01-26T06:23:52.849Z,0
2017-01-26T06:25:01.804Z,0
2017-01-26T06:26:10.762Z,0
2017-01-26T06:27:19.716Z,0
2017-01-26T06:28:28.670Z,0
2017-01-26T06:29:37.628Z,0
2017-01-26T06:30:46.578Z,0
2017-01-26T06:31:55.525Z,0
2017-01-26T06:33:04.478Z,0
2017-01-26T06:34:13.427Z,0
2017-01-26T06:35:22.427Z,0
2017-01-26T06:36:31.385Z,0
2017-01-26T06:37:40.343Z,0
2017-01-26T06:38:49.303Z,0
2017-01-26T06:39:58.265Z,0
2017-01-26T06:41:07.219Z,0
2017-01-26T06:42:16.183Z,0
2017-01-26T06:43:25.136Z,0
2017-01-26T06:44:34.089Z,0
2017-01-26T06:45:43.047Z,0
2017-01-26T06:46:52.001Z,0
2017-01-26T06:48:00.952Z,0
2017-01-26T06:49:09.908Z,0
2017-01-26T06:50:18.862Z,0
2017-01-26T06:51:27.815Z,0
2017-01-26T06:52:36.858Z,0
2017-01-26T06:53:45.812Z,0
2017-01-26T06:54:54.801Z,0
2017-01-26T06:56:03.755Z,0
2017-01-26T06:57:12.710Z,0
2017-01-26T06:58:21.662Z,0
2017-01-26T06:59:30.702Z,0
2017-01-26T07:00:39.651Z,5
2017-01-26T07:01:48.604Z,5
2017-01-26T07:02:57.562Z,5
2017-01-26T07:04:06.521Z,5
2017-01-26T07:05:15.472Z,5
2017-01-26T07:06:24.424Z,5
2017-01-26T07:07:33.377Z,5
2017-01-26T07:08:42.333Z,5
2017-01-26T07:09:51.289Z,5
2017-01-26T07:11:00.243Z,5
2017-01-26T07:12:09.211Z,10
2017-01-26T07:13:18.172Z,10
2017-01-26T07:14:27.556Z,10
2017-01-26T07:15:36.550Z,10
2017-01-26T07:16:45.503Z,10
2017-01-26T07:17:54.476Z,10
2017-01-26T07:19:03.526Z,10
2017-01-26T07:20:12.497Z,10
2017-01-26T07:21:21.450Z,10
2017-01-26T07:22:30.400Z,10
2017-01-26T07:23:39.352Z,10
2017-01-26T07:24:48.304Z,15
2017-01-26T07:25:57.252Z,15
2017-01-26T07:27:06.205Z,15
2017-01-26T07:28:15.156Z,15
2017-01-26T07:29:24.110Z,15
2017-01-26T07:30:33.065Z,15
2017-01-26T07:31:42.020Z,15
2017-01-26T07:32:51.011Z,20
2017-01-26T07:33:59.966Z,20
2017-01-26T07:35:08.932Z,20
2017-01-26T07:36:17.881Z,20
2017-01-26T07:37:26.836Z,25
2017-01-26T07:38:35.790Z,25
2017-01-26T07:39:44.759Z,25
2017-01-26T07:40:53.706Z,25
2017-01-26T07:42:02.670Z,30
2017-01-26T07:43:12.057Z,30
2017-01-26T07:44:21.014Z,30
2017-01-26T07:45:29.969Z,30
2017-01-26T07:46:38.922Z,30
2017-01-26T07:47:47.965Z,30
2017-01-26T07:48:57.012Z,30
2017-01-26T07:50:05.966Z,30
2017-01-26T07:51:14.940Z,30
2017-01-26T07:52:23.892Z,35
2017-01-26T07:53:32.846Z,35
2017-01-26T07:54:41.799Z,35
2017-01-26T07:55:50.811Z,30
2017-01-26T07:56:59.784Z,30
2017-01-26T07:58:08.733Z,30
2017-01-26T07:59:17.687Z,30
2017-01-26T08:00:26.640Z,30
2017-01-26T08:01:35.596Z,35
2017-01-26T08:02:44.569Z,35
2017-01-26T08:03:53.524Z,35
2017-01-26T08:05:02.477Z,35
2017-01-26T08:06:11.451Z,35
2017-01-26T08:07:20.406Z,35
2017-01-26T08:08:29.356Z,35
2017-01-26T08:09:38.305Z,35
2017-01-26T08:10:47.257Z,35
2017-01-26T08:11:56.213Z,35
2017-01-26T08:13:05.168Z,35
2017-01-26T08:14:14.138Z,40
2017-01-26T08:15:23.100Z,40
2017-01-26T08:16:32.057Z,40
2017-01-26T08:17:41.010Z,40
2017-01-26T08:18:58.606Z,40
2017-01-26T08:20:07.657Z,40
2017-01-26T08:21:16.615Z,40
2017-01-26T08:22:25.571Z,40
2017-01-26T08:23:34.525Z,40
2017-01-26T08:24:43.477Z,40
2017-01-26T08:25:52.634Z,45
2017-01-26T08:27:01.588Z,45
2017-01-26T08:28:10.545Z,45
2017-01-26T08:29:19.503Z,45
2017-01-26T08:30:28.543Z,45
2017-01-26T08:31:37.499Z,45
2017-01-26T08:32:46.682Z,45
2017-01-26T08:33:55.643Z,45
2017-01-26T08:35:04.601Z,45
2017-01-26T08:36:13.561Z,45
2017-01-26T08:37:22.540Z,45
2017-01-26T08:38:31.499Z,45
2017-01-26T08:39:40.449Z,45
2017-01-26T08:40:49.404Z,45
2017-01-26T08:41:58.359Z,45
2017-01-26T08:43:07.310Z,45
2017-01-26T08:44:16.355Z,45
2017-01-26T08:45:25.315Z,45
2017-01-26T08:46:34.268Z,45
2017-01-26T08:47:43.224Z,50
2017-01-26T08:48:55.357Z,50
2017-01-26T08:50:06.166Z,50
2017-01-26T08:51:15.178Z,50
2017-01-26T08:52:25.320Z,50
2017-01-26T08:53:35.087Z,50
2017-01-26T08:54:44.048Z,50
2017-01-26T08:55:53.617Z,50
2017-01-26T08:57:03.515Z,50
2017-01-26T08:58:13.070Z,55
2017-01-26T08:59:22.501Z,55
2017-01-26T09:00:31.768Z,50
2017-01-26T09:01:41.037Z,55
2017-01-26T09:02:51.516Z,55
2017-01-26T09:04:03.759Z,55
2017-01-26T09:05:13.832Z,55
2017-01-26T09:06:24.273Z,55
2017-01-26T09:07:34.259Z,65
2017-01-26T09:08:43.993Z,70
2017-01-26T09:09:53.108Z,70
2017-01-26T09:11:02.767Z,65
2017-01-26T09:12:13.501Z,65
2017-01-26T09:13:23.237Z,60
2017-01-26T09:14:33.458Z,75
2017-01-26T09:15:44.119Z,70
2017-01-26T09:16:54.286Z,85
2017-01-26T09:18:04.652Z,80
2017-01-26T09:19:15.031Z,80
2017-01-26T09:20:25.430Z,85
2017-01-26T09:21:35.734Z,75
2017-01-26T09:22:46.166Z,65
2017-01-26T09:23:55.630Z,70
2017-01-26T09:25:04.602Z,75
2017-01-26T09:26:13.590Z,70
2017-01-26T09:27:22.564Z,55
2017-01-26T09:28:31.545Z,55
2017-01-26T09:29:40.521Z,60
2017-01-26T09:30:49.502Z,55
2017-01-26T09:31:58.480Z,75
2017-01-26T09:33:07.459Z,60
2017-01-26T09:34:16.441Z,60
2017-01-26T09:35:25.423Z,50
2017-01-26T09:36:34.427Z,50
2017-01-26T09:37:43.437Z,55
2017-01-26T09:38:52.486Z,50
2017-01-26T09:40:01.441Z,60
2017-01-26T09:41:10.480Z,50
2017-01-26T09:42:19.441Z,50
2017-01-26T09:43:28.407Z,45
2017-01-26T09:44:37.373Z,50
2017-01-26T09:45:46.335Z,55
2017-01-26T09:46:55.333Z,55
2017-01-26T09:48:04.292Z,55
2017-01-26T09:49:13.253Z,60
2017-01-26T09:50:22.208Z,60
2017-01-26T09:51:31.161Z,55
2017-01-26T09:52:40.114Z,50
2017-01-26T09:53:49.256Z,50
2017-01-26T09:54:58.216Z,55
2017-01-26T09:56:07.262Z,55
2017-01-26T09:57:16.217Z,90
2017-01-26T09:58:25.177Z,60
2017-01-26T09:59:34.146Z,60
2017-01-26T10:00:43.181Z,60
2017-01-26T10:01:52.139Z,55
2017-01-26T10:03:01.097Z,55
2017-01-26T10:04:10.051Z,50
2017-01-26T10:05:19.009Z,45
2017-01-26T10:06:27.964Z,50
2017-01-26T10:07:36.920Z,55
2017-01-26T10:08:45.882Z,50
2017-01-26T10:09:54.837Z,50
2017-01-26T10:11:03.796Z,50
2017-01-26T10:12:12.757Z,55
2017-01-26T10:13:21.720Z,50
2017-01-26T10:14:30.682Z,55
2017-01-26T10:15:39.635Z,55
2017-01-26T10:16:48.586Z,55
2017-01-26T10:17:57.539Z,60
2017-01-26T10:19:06.492Z,60
2017-01-26T10:20:15.448Z,50
2017-01-26T10:21:24.406Z,55
2017-01-26T10:22:33.358Z,55
2017-01-26T10:23:42.318Z,60
2017-01-26T10:24:51.305Z,60
2017-01-26T10:26:00.259Z,60
2017-01-26T10:27:09.214Z,65
2017-01-26T10:28:18.171Z,65
2017-01-26T10:29:27.131Z,65
2017-01-26T10:30:36.093Z,65
2017-01-26T10:31:45.304Z,75
2017-01-26T10:32:55.161Z,70
2017-01-26T10:34:05.188Z,70
2017-01-26T10:35:17.269Z,70
2017-01-26T10:36:26.991Z,75
2017-01-26T10:37:35.950Z,70
2017-01-26T10:38:44.909Z,80
2017-01-26T10:39:53.866Z,85
2017-01-26T10:41:02.820Z,100
2017-01-26T10:42:11.778Z,90
2017-01-26T10:43:20.747Z,90
2017-01-26T10:44:29.791Z,80
2017-01-26T10:45:38.746Z,85
2017-01-26T10:46:47.707Z,75
2017-01-26T10:47:56.680Z,75
2017-01-26T10:49:05.634Z,80
2017-01-26T10:50:14.590Z,75
2017-01-26T10:51:23.544Z,75
2017-01-26T10:52:32.497Z,85
2017-01-26T10:53:41.451Z,80
2017-01-26T10:54:50.408Z,80
2017-01-26T10:55:59.370Z,95
2017-01-26T10:57:08.320Z,85
2017-01-26T10:58:17.375Z,70
2017-01-26T10:59:26.327Z,75
2017-01-26T11:00:35.279Z,80
2017-01-26T11:01:44.230Z,70
2017-01-26T11:02:53.197Z,70
2017-01-26T11:04:02.153Z,75
2017-01-26T11:05:11.111Z,75
2017-01-26T11:06:20.067Z,80
2017-01-26T11:07:29.026Z,70
2017-01-26T11:08:38.685Z,70
2017-01-26T11:09:48.342Z,80
2017-01-26T11:10:57.804Z,80
2017-01-26T11:12:07.535Z,85
2017-01-26T11:13:17.234Z,85
2017-01-26T11:14:27.043Z,80
2017-01-26T11:15:36.724Z,90
2017-01-26T11:16:46.476Z,100
2017-01-26T11:17:56.155Z,95
2017-01-26T11:19:06.908Z,100
2017-01-26T11:20:16.298Z,110
2017-01-26T11:21:26.275Z,125
2017-01-26T11:22:35.872Z,100
2017-01-26T11:23:46.101Z,115
2017-01-26T11:24:56.359Z,120
2017-01-26T11:26:05.993Z,110
2017-01-26T11:27:15.584Z,110
2017-01-26T11:28:24.539Z,120
2017-01-26T11:29:33.585Z,100
2017-01-26T11:30:42.538Z,95
2017-01-26T11:31:51.490Z,100
2017-01-26T11:33:00.445Z,100
2017-01-26T11:34:09.405Z,90
2017-01-26T11:35:18.369Z,120
2017-01-26T11:36:27.327Z,95
2017-01-26T11:37:36.283Z,100
2017-01-26T11:38:48.331Z,105
2017-01-26T11:39:57.301Z,110
2017-01-26T11:41:06.258Z,110
2017-01-26T11:42:15.213Z,115
2017-01-26T11:43:24.176Z,115
2017-01-26T11:44:33.128Z,120
2017-01-26T11:45:42.085Z,115
2017-01-26T11:46:51.045Z,120
2017-01-26T11:48:00.086Z,115
2017-01-26T11:49:09.045Z,120
2017-01-26T11:50:18.001Z,115
2017-01-26T11:51:26.955Z,100
2017-01-26T11:52:35.917Z,100
2017-01-26T11:53:44.876Z,115
2017-01-26T11:54:53.835Z,120
2017-01-26T11:56:02.794Z,125
2017-01-26T11:57:11.754Z,115
2017-01-26T11:58:21.109Z,105
2017-01-26T11:59:30.968Z,120
2017-01-26T12:00:40.964Z,120
2017-01-26T12:01:50.202Z,115
2017-01-26T12:02:59.635Z,125
2017-01-26T12:04:08.894Z,130
2017-01-26T12:05:18.547Z,130
2017-01-26T12:06:28.514Z,125
2017-01-26T12:07:38.033Z,135
2017-01-26T12:08:47.696Z,130
2017-01-26T12:09:57.415Z,120
2017-01-26T12:11:06.807Z,130
2017-01-26T12:12:16.485Z,125
2017-01-26T12:13:26.343Z,115
2017-01-26T12:14:36.688Z,115
2017-01-26T12:15:46.955Z,125
2017-01-26T12:16:56.354Z,130
2017-01-26T12:18:06.281Z,125
2017-01-26T12:19:15.741Z,115
2017-01-26T12:20:25.511Z,105
2017-01-26T12:21:34.492Z,100
2017-01-26T12:22:43.821Z,95
2017-01-26T12:23:53.017Z,90
2017-01-26T12:25:01.972Z,90
2017-01-26T12:26:11.928Z,90
2017-01-26T12:27:23.747Z,95
2017-01-26T12:28:47.199Z,90
2017-01-26T12:30:06.756Z,90
2017-01-26T12:31:16.870Z,85
2017-01-26T12:32:25.927Z,85
2017-01-26T12:33:34.881Z,85
2017-01-26T12:34:43.835Z,85
2017-01-26T12:35:52.787Z,85
2017-01-26T12:37:01.753Z,90
2017-01-26T12:38:10.718Z,85
2017-01-26T12:39:19.680Z,85
2017-01-26T12:40:28.642Z,85
2017-01-26T12:41:37.628Z,85
2017-01-26T12:42:46.610Z,85
2017-01-26T12:43:55.571Z,85
2017-01-26T12:45:04.525Z,85
2017-01-26T12:46:13.494Z,85
2017-01-26T12:47:22.449Z,85
2017-01-26T12:48:31.410Z,85
2017-01-26T12:49:40.382Z,85
2017-01-26T12:50:49.336Z,80
2017-01-26T12:51:58.390Z,80
2017-01-26T12:53:07.349Z,80
2017-01-26T12:54:16.368Z,80
2017-01-26T12:55:25.322Z,80
2017-01-26T12:56:34.288Z,80
2017-01-26T12:57:43.249Z,70
2017-01-26T12:58:52.209Z,80
2017-01-26T13:00:01.200Z,80
2017-01-26T13:01:10.166Z,75
2017-01-26T13:02:19.127Z,75
2017-01-26T13:03:28.091Z,75
2017-01-26T13:04:37.043Z,75
2017-01-26T13:05:46.003Z,70
2017-01-26T13:06:54.967Z,70
2017-01-26T13:08:03.921Z,70
2017-01-26T13:09:12.874Z,70
2017-01-26T13:10:21.843Z,65
2017-01-26T13:11:30.800Z,65
2017-01-26T13:12:39.759Z,70
2017-01-26T13:13:48.721Z,65
2017-01-26T13:14:57.675Z,65
2017-01-26T13:16:06.634Z,60
2017-01-26T13:17:15.674Z,65
2017-01-26T13:18:24.649Z,60
2017-01-26T13:19:33.637Z,60
2017-01-26T13:20:42.606Z,60
2017-01-26T13:21:51.562Z,60
2017-01-26T13:23:00.514Z,60
2017-01-26T13:24:09.476Z,60
2017-01-26T13:25:18.433Z,55
2017-01-26T13:26:27.391Z,55
2017-01-26T13:27:36.338Z,55
2017-01-26T13:28:45.292Z,55
2017-01-26T13:29:54.245Z,55
2017-01-26T13:31:03.236Z,55
2017-01-26T13:32:12.190Z,55
2017-01-26T13:33:21.155Z,55
2017-01-26T13:34:30.115Z,55
2017-01-26T13:35:39.072Z,50
2017-01-26T13:36:48.112Z,50
2017-01-26T13:37:57.153Z,50
2017-01-26T13:39:06.118Z,50
2017-01-26T13:40:15.479Z,50
2017-01-26T13:41:24.437Z,50
2017-01-26T13:42:34.762Z,50
2017-01-26T13:43:43.995Z,50
2017-01-26T13:44:52.951Z,50
2017-01-26T13:46:01.916Z,50
2017-01-26T13:47:11.783Z,50
2017-01-26T13:48:21.097Z,50
2017-01-26T13:49:30.055Z,50
2017-01-26T13:50:39.143Z,50
2017-01-26T13:51:48.549Z,50
2017-01-26T13:52:58.219Z,50
2017-01-26T13:54:07.278Z,50
2017-01-26T13:55:16.301Z,50
2017-01-26T13:56:26.022Z,50
2017-01-26T13:57:36.554Z,50
2017-01-26T13:58:45.509Z,50
2017-01-26T13:59:54.553Z,50
2017-01-26T14:01:03.517Z,50
2017-01-26T14:02:12.475Z,50
2017-01-26T14:03:21.526Z,50
2017-01-26T14:04:32.004Z,50
2017-01-26T14:05:45.378Z,45
2017-01-26T14:06:56.236Z,45
2017-01-26T14:08:05.645Z,45
2017-01-26T14:09:25.069Z,45
2017-01-26T14:10:36.025Z,45
2017-01-26T14:11:46.116Z,45
2017-01-26T14:12:57.706Z,40
2017-01-26T14:14:09.518Z,40
2017-01-26T14:15:18.477Z,40
2017-01-26T14:16:27.437Z,40
2017-01-26T14:17:36.387Z,40
2017-01-26T14:18:45.340Z,40
2017-01-26T14:19:54.293Z,35
2017-01-26T14:21:03.248Z,35
2017-01-26T14:22:12.289Z,35
2017-01-26T14:23:21.362Z,35
2017-01-26T14:24:30.325Z,35
2017-01-26T14:25:39.281Z,35
2017-01-26T14:26:48.236Z,30
2017-01-26T14:27:57.191Z,30
2017-01-26T14:29:06.187Z,30
2017-01-26T14:30:15.142Z,30
2017-01-26T14:31:24.188Z,30
2017-01-26T14:32:33.141Z,30
2017-01-26T14:33:42.100Z,30
2017-01-26T14:34:51.057Z,30
2017-01-26T14:36:00.017Z,30
2017-01-26T14:37:09.379Z,30
2017-01-26T14:38:18.329Z,30
2017-01-26T14:39:27.366Z,30
2017-01-26T14:40:36.322Z,30
2017-01-26T14:41:45.273Z,30
2017-01-26T14:42:54.228Z,30
2017-01-26T14:44:03.188Z,30
2017-01-26T14:45:12.148Z,30
2017-01-26T14:46:21.106Z,25
2017-01-26T14:47:30.065Z,25
2017-01-26T14:48:39.019Z,30
2017-01-26T14:49:47.843Z,30
2017-01-26T14:50:56.841Z,30
2017-01-26T14:52:05.793Z,25
2017-01-26T14:53:14.747Z,25
2017-01-26T14:54:23.711Z,25
2017-01-26T14:55:32.754Z,25
2017-01-26T14:56:41.702Z,25
2017-01-26T14:57:50.664Z,25
2017-01-26T14:58:59.617Z,20
2017-01-26T15:00:09.008Z,20
2017-01-26T15:01:18.049Z,20
2017-01-26T15:02:27.012Z,20
2017-01-26T15:03:36.046Z,20
2017-01-26T15:04:44.998Z,20
2017-01-26T15:05:53.949Z,15
2017-01-26T15:07:02.903Z,15
2017-01-26T15:08:11.864Z,15
2017-01-26T15:09:20.819Z,15
2017-01-26T15:10:29.855Z,15
2017-01-26T15:11:38.807Z,15
2017-01-26T15:12:48.184Z,15
2017-01-26T15:13:57.142Z,15
2017-01-26T15:15:06.186Z,10
2017-01-26T15:16:15.546Z,10
2017-01-26T15:17:24.955Z,10
2017-01-26T15:18:34.517Z,10
2017-01-26T15:19:45.084Z,10
2017-01-26T15:20:54.777Z,10
2017-01-26T15:22:13.861Z,10
2017-01-26T15:23:23.208Z,10
2017-01-26T15:24:32.193Z,10
2017-01-26T15:25:41.491Z,5
2017-01-26T15:26:50.770Z,5
2017-01-26T15:28:00.999Z,5
2017-01-26T15:29:11.103Z,5
2017-01-26T15:30:23.305Z,5
2017-01-26T15:31:36.338Z,5
2017-01-26T15:32:46.687Z,5
2017-01-26T15:33:56.685Z,5
2017-01-26T15:35:06.726Z,5
2017-01-26T15:36:16.080Z,0
2017-01-26T15:37:25.800Z,0
2017-01-26T15:38:38.529Z,0
2017-01-26T15:39:49.061Z,0
2017-01-26T15:40:59.722Z,0
2017-01-26T15:42:12.412Z,0
2017-01-26T15:43:24.883Z,0
2017-01-26T15:44:34.884Z,0
2017-01-26T15:45:46.236Z,0
2017-01-26T15:46:57.201Z,0
2017-01-26T15:48:08.183Z,0
2017-01-26T15:49:19.101Z,0
2017-01-26T15:50:31.597Z,0
2017-01-26T15:51:43.705Z,0
2017-01-26T15:52:53.694Z,0
2017-01-26T15:54:03.757Z,0
2017-01-26T15:55:13.592Z,0
2017-01-26T15:56:23.252Z,0
2017-01-26T15:57:32.845Z,0
2017-01-26T15:58:42.501Z,0
2017-01-26T15:59:52.342Z,0
2017-01-26T16:01:03.327Z,0
2017-01-26T16:02:13.319Z,0
2017-01-26T16:03:23.288Z,0
2017-01-26T16:04:34.306Z,0
2017-01-26T16:05:43.491Z,0
2017-01-26T16:06:52.446Z,0
2017-01-26T16:08:01.404Z,0
2017-01-26T16:09:10.388Z,0
2017-01-26T16:10:19.341Z,0
2017-01-26T16:11:28.738Z,0
2017-01-26T16:12:38.097Z,0
2017-01-26T16:13:47.239Z,0
2017-01-26T16:14:56.465Z,0
2017-01-26T16:16:05.417Z,0
2017-01-26T16:17:14.619Z,0
2017-01-26T16:18:23.734Z,0
2017-01-26T16:19:32.686Z,0
2017-01-26T16:20:41.639Z,0
2017-01-26T16:21:52.348Z,0
2017-01-26T16:23:01.313Z,0
2017-01-26T16:24:10.268Z,0
2017-01-26T16:25:19.221Z,0
2017-01-26T16:26:28.178Z,0
2017-01-26T16:27:37.138Z,0
2017-01-26T16:28:46.099Z,0
2017-01-26T16:29:55.055Z,0
2017-01-26T16:31:04.014Z,0
2017-01-26T16:32:13.378Z,0
2017-01-26T16:33:22.338Z,0
2017-01-26T16:34:31.701Z,0
2017-01-26T16:35:40.657Z,0
2017-01-26T16:36:49.699Z,0
2017-01-26T16:37:58.652Z,0
2017-01-26T16:39:07.612Z,0
2017-01-26T16:40:16.562Z,0
2017-01-26T16:41:25.516Z,0
2017-01-26T16:42:34.556Z,0
2017-01-26T16:43:43.515Z,0